Roma, Italia

11:04 AM CET del 31 Gennaio 2015 (GMT +0100)
Ciampino | Change Station
CLOSE
Current Station
Aeroporto
Location: Rome Ciampino,
Altitudine: 344 ft
Stazioni meteo nelle vicinanze
Avvisi attivi: Thunderstorms

Alt. 344 ft 41.81 °N, 12.58 °E | Updated 19 minutes ago

Light Rain
Pioggia leggera
45 °F
Sembra 41 °F
N
6
Vento Variabile Vento da ESE

Oggi
Massima -- | Minima -- °F
--% Possibilità di precip.
Ieri
Massima -- | Minima -- °F
Precip. -- in
7:24 AM 5:23 PM
Gobba a ponente, 88% visible
Pressione 29.15 in
Visibilità 5.0 miglia
Nuvole Alcuni 1400 ft
Alcuni 1500 ft
Nubi sparse 10000 ft
Raffreddamento del vento 41 °F
Punto di rugiada 41 °F
Umidità 87%
Piovosità 0.00 in
Spessore del manto nevoso Non disponibile.
Raggi UV 2 fuori da 12
Polline Non disponibile.
Qualità dell'aria Non disponibile.
Flu Activity Non disponibile.
METAR LIRA 310945Z 12005KT 8000 -RA FEW014 FEW015CB SCT100 07/05 Q0987

More Conditions Fewer Conditions

Pressione 29.15 in
Visibilità 5.0 miglia
Nuvole Alcuni 1400 ft
Alcuni 1500 ft
Nubi sparse 10000 ft
Raffreddamento del vento 41 °F
Punto di rugiada 41 °F
Umidità 87%
Piovosità 0.00 in
Spessore del manto nevoso Non disponibile.
Raggi UV 2 fuori da 12
Polline Non disponibile.
Qualità dell'aria Non disponibile.
Flu Activity Non disponibile.
METAR LIRA 310945Z 12005KT 8000 -RA FEW014 FEW015CB SCT100 07/05 Q0987

More Conditions Fewer Conditions

10-Day Weather Forecast

Almanac

Astronomia

Jan. 31, 2015 Alba Tramonto
Ora attuale
Crepuscolo civile
Crepuscolo nautico
Crepuscolo astronomico
Luna
Estensione della luce visibile
Lunghezza del giorno
Tomorrow will be .
, % of the Moon is Illuminated

Gli estremi di oggi

Massime Regione Minime Regione

Community

WunderPhotos

Upload Photos

1,792,021 foto caricate!

WunderBlogs® & News

Nearby

Qualità dell'aria

  Qualità dell'aria Indice AQ Inquinante
Not available.

Profondità neve

Stazione Profondità Altitudine

Attività sismica

Città  Distanza Mag. Data & Ora
Minimo Magnitudo Mostrato è 2.5.

Temperature delle acque costiere

Località Temperatura

Stazioni meteo nelle vicinanze